Terminal Aerodrome Forecast
Issued by NWS

Home | Current Version | Previous Version | Text Only | Print | Product List | Glossary On
Versions: 1 2 3 4 5 6 7 8 9 10 11 12 13
000
FTUS45 KREV 191739
TAFRNO
TAF
KRNO 191739Z 1918/2018 23014G28KT P6SM SCT070 BKN120
     FM192000 23018G32KT P6SM SCT080 BKN150
     FM200400 22011G19KT P6SM SCT060 BKN110
     FM200900 20011G19KT 6SM -RA SCT040 OVC080
     FM201200 20020G30KT 5SM -RA SCT015 BKN028 OVC040 WS020/25045KT=

USA.gov is the U.S. government's official web portal to all federal, state and local government web resources and services.